This is the latest recevied weather packets stored in our database for station/object N7CW. If no packets are shown the sender has not sent any weather packets the latest 10 day(s).
| Time | Temp. | Humidity | Pressure | Rain* | Wind** | Luminosity | Snow |
|---|---|---|---|---|---|---|---|
| 1777974595 | 5.56° C | 68% | 1013.1 hPa | 0 mm | - | 0 W/m² | - |
| 1777973989 | 6.11° C | 66% | 1013.2 hPa | 0 mm | - | 0 W/m² | - |
| 1777973686 | 6.67° C | 64% | 1013.3 hPa | 0 mm | - | 0 W/m² | - |
| 1777973383 | 6.67° C | 64% | 1013.4 hPa | 0 mm | - | 0 W/m² | - |
| 1777973080 | 7.22° C | 63% | 1013.4 hPa | 0 mm | - | 0 W/m² | - |
| 1777972778 | 7.22° C | 63% | 1013.3 hPa | 0 mm | - | 0 W/m² | - |
| 1777972475 | 7.78° C | 61% | 1013.5 hPa | 0 mm | - | 0 W/m² | - |
| 1777972173 | 7.78° C | 61% | 1013.5 hPa | 0 mm | - | 0 W/m² | - |
| 1777971871 | 7.78° C | 60% | 1013.6 hPa | 0 mm | - | 0 W/m² | - |
| 1777971568 | 7.78° C | 60% | 1013.8 hPa | 0 mm | - | 0 W/m² | - |
| 1777971266 | 7.78° C | 60% | 1013.9 hPa | 0 mm | - | 0 W/m² | - |
| 1777970964 | 7.78° C | 59% | 1013.9 hPa | 0 mm | - | 0 W/m² | - |
| 1777970662 | 7.78° C | 59% | 1014 hPa | 0 mm | - | 0 W/m² | - |
| 1777970360 | 7.78° C | 60% | 1014.1 hPa | 0 mm | - | 0 W/m² | - |
| 1777970057 | 7.78° C | 61% | 1014.2 hPa | 0 mm | - | 0 W/m² | - |
| 1777969753 | 7.78° C | 62% | 1014.4 hPa | 0 mm | - | 0 W/m² | - |
| 1777969449 | 7.78° C | 63% | 1014.4 hPa | 0 mm | - | 0 W/m² | - |
| 1777969146 | 7.78° C | 62% | 1014 hPa | 0 mm | - | 0 W/m² | - |
| 1777968842 | 7.78° C | 62% | 1014.1 hPa | 0 mm | - | 0 W/m² | - |
| 1777968539 | 7.78° C | 64% | 1014.4 hPa | 0 mm | - | 0 W/m² | - |
| 1777968235 | 7.78° C | 63% | 1014.2 hPa | 0 mm | - | 0 W/m² | - |
| 1777967931 | 6.67° C | 68% | 1014 hPa | 0 mm | - | 0 W/m² | - |
| 1777967628 | 7.22° C | 66% | 1014.2 hPa | 0 mm | - | 0 W/m² | - |
| 1777967325 | 7.22° C | 67% | 1014.5 hPa | 0 mm | - | 0 W/m² | - |
| 1777966720 | 8.33° C | 65% | 1014.4 hPa | 0 mm | - | 0 W/m² | - |
* Rain latest hour (hover to see other rain measurements)
** Current wind speed in m/s (hover to see current wind gust speed)